sensor_id;sensor_type;location;lat;lon;timestamp;P1;durP1;ratioP1;P2;durP2;ratioP2
20476;SDS011;10397;50.948;11.092;2023-01-30T00:01:27;10.48;;;7.55;;
20476;SDS011;10397;50.948;11.092;2023-01-30T00:03:56;9.53;;;8.13;;
20476;SDS011;10397;50.948;11.092;2023-01-30T00:06:27;11.05;;;8.15;;
20476;SDS011;10397;50.948;11.092;2023-01-30T00:08:58;10.03;;;7.03;;
20476;SDS011;10397;50.948;11.092;2023-01-30T00:11:29;11.73;;;7.27;;
20476;SDS011;10397;50.948;11.092;2023-01-30T00:14:00;11.48;;;9.10;;
20476;SDS011;10397;50.948;11.092;2023-01-30T00:16:31;11.70;;;8.88;;
20476;SDS011;10397;50.948;11.092;2023-01-30T00:19:03;10.60;;;8.73;;
20476;SDS011;10397;50.948;11.092;2023-01-30T00:21:34;13.35;;;9.50;;
20476;SDS011;10397;50.948;11.092;2023-01-30T00:24:06;10.75;;;8.23;;
20476;SDS011;10397;50.948;11.092;2023-01-30T00:26:37;11.45;;;8.83;;
20476;SDS011;10397;50.948;11.092;2023-01-30T00:29:09;12.03;;;8.20;;
20476;SDS011;10397;50.948;11.092;2023-01-30T00:31:41;10.40;;;8.80;;
20476;SDS011;10397;50.948;11.092;2023-01-30T00:34:13;9.85;;;8.53;;
20476;SDS011;10397;50.948;11.092;2023-01-30T00:36:44;9.78;;;8.23;;
20476;SDS011;10397;50.948;11.092;2023-01-30T00:39:16;8.78;;;7.83;;
20476;SDS011;10397;50.948;11.092;2023-01-30T00:41:47;11.00;;;9.15;;
20476;SDS011;10397;50.948;11.092;2023-01-30T00:44:37;10.33;;;8.10;;
20476;SDS011;10397;50.948;11.092;2023-01-30T00:47:26;12.17;;;9.20;;
20476;SDS011;10397;50.948;11.092;2023-01-30T00:49:58;9.25;;;8.25;;
20476;SDS011;10397;50.948;11.092;2023-01-30T00:52:29;12.05;;;8.63;;
20476;SDS011;10397;50.948;11.092;2023-01-30T00:55:01;10.13;;;8.93;;
20476;SDS011;10397;50.948;11.092;2023-01-30T00:57:32;11.08;;;8.25;;
20476;SDS011;10397;50.948;11.092;2023-01-30T01:00:04;7.87;;;7.08;;
20476;SDS011;10397;50.948;11.092;2023-01-30T01:02:35;9.60;;;7.20;;
20476;SDS011;10397;50.948;11.092;2023-01-30T01:05:07;8.13;;;6.45;;
20476;SDS011;10397;50.948;11.092;2023-01-30T01:07:38;8.68;;;7.15;;
20476;SDS011;10397;50.948;11.092;2023-01-30T01:10:10;9.00;;;6.40;;
20476;SDS011;10397;50.948;11.092;2023-01-30T01:12:41;7.15;;;6.20;;
20476;SDS011;10397;50.948;11.092;2023-01-30T01:15:12;9.70;;;7.08;;
20476;SDS011;10397;50.948;11.092;2023-01-30T01:17:42;7.13;;;6.30;;
20476;SDS011;10397;50.948;11.092;2023-01-30T01:20:14;7.08;;;4.87;;
20476;SDS011;10397;50.948;11.092;2023-01-30T01:22:45;7.87;;;5.77;;
20476;SDS011;10397;50.948;11.092;2023-01-30T01:25:18;6.27;;;5.37;;
20476;SDS011;10397;50.948;11.092;2023-01-30T01:27:48;7.90;;;5.37;;
20476;SDS011;10397;50.948;11.092;2023-01-30T01:30:19;8.05;;;5.80;;
20476;SDS011;10397;50.948;11.092;2023-01-30T01:32:50;8.27;;;6.40;;
20476;SDS011;10397;50.948;11.092;2023-01-30T01:35:22;6.95;;;5.45;;
20476;SDS011;10397;50.948;11.092;2023-01-30T01:37:53;7.25;;;6.30;;
20476;SDS011;10397;50.948;11.092;2023-01-30T01:40:24;7.80;;;5.83;;
20476;SDS011;10397;50.948;11.092;2023-01-30T01:43:16;8.07;;;6.47;;
20476;SDS011;10397;50.948;11.092;2023-01-30T01:45:52;7.63;;;6.37;;
20476;SDS011;10397;50.948;11.092;2023-01-30T01:51:12;8.17;;;6.57;;
20476;SDS011;10397;50.948;11.092;2023-01-30T01:53:46;6.40;;;5.33;;
20476;SDS011;10397;50.948;11.092;2023-01-30T01:56:13;6.62;;;4.42;;
20476;SDS011;10397;50.948;11.092;2023-01-30T01:58:45;6.58;;;5.17;;
20476;SDS011;10397;50.948;11.092;2023-01-30T02:01:15;7.67;;;6.22;;
20476;SDS011;10397;50.948;11.092;2023-01-30T02:03:48;9.35;;;6.35;;
20476;SDS011;10397;50.948;11.092;2023-01-30T02:06:16;8.53;;;6.50;;
20476;SDS011;10397;50.948;11.092;2023-01-30T02:09:00;7.33;;;5.90;;
20476;SDS011;10397;50.948;11.092;2023-01-30T02:11:27;8.60;;;5.90;;
20476;SDS011;10397;50.948;11.092;2023-01-30T02:13:56;7.40;;;5.80;;
20476;SDS011;10397;50.948;11.092;2023-01-30T02:16:26;8.68;;;7.28;;
20476;SDS011;10397;50.948;11.092;2023-01-30T02:21:39;9.40;;;7.53;;
20476;SDS011;10397;50.948;11.092;2023-01-30T02:26:54;8.47;;;6.97;;
20476;SDS011;10397;50.948;11.092;2023-01-30T02:31:58;13.27;;;8.80;;
20476;SDS011;10397;50.948;11.092;2023-01-30T02:40:00;9.27;;;7.23;;
20476;SDS011;10397;50.948;11.092;2023-01-30T02:42:29;8.03;;;6.60;;
20476;SDS011;10397;50.948;11.092;2023-01-30T02:45:00;9.90;;;7.53;;
20476;SDS011;10397;50.948;11.092;2023-01-30T02:47:46;6.77;;;5.77;;
20476;SDS011;10397;50.948;11.092;2023-01-30T02:50:33;10.47;;;7.13;;
20476;SDS011;10397;50.948;11.092;2023-01-30T02:53:05;9.03;;;6.50;;
20476;SDS011;10397;50.948;11.092;2023-01-30T02:55:38;8.30;;;6.57;;
20476;SDS011;10397;50.948;11.092;2023-01-30T02:58:07;7.90;;;6.03;;
20476;SDS011;10397;50.948;11.092;2023-01-30T03:01:01;8.13;;;6.40;;
20476;SDS011;10397;50.948;11.092;2023-01-30T03:09:21;9.27;;;6.07;;
20476;SDS011;10397;50.948;11.092;2023-01-30T03:12:10;7.17;;;5.93;;
20476;SDS011;10397;50.948;11.092;2023-01-30T03:14:48;7.57;;;6.30;;
20476;SDS011;10397;50.948;11.092;2023-01-30T03:17:19;7.50;;;5.67;;
20476;SDS011;10397;50.948;11.092;2023-01-30T03:19:49;7.60;;;6.50;;
20476;SDS011;10397;50.948;11.092;2023-01-30T03:22:19;7.83;;;6.33;;
20476;SDS011;10397;50.948;11.092;2023-01-30T03:24:50;7.73;;;5.97;;
20476;SDS011;10397;50.948;11.092;2023-01-30T03:27:20;8.57;;;6.10;;
20476;SDS011;10397;50.948;11.092;2023-01-30T03:29:51;7.63;;;6.20;;
20476;SDS011;10397;50.948;11.092;2023-01-30T03:32:22;7.97;;;6.60;;
20476;SDS011;10397;50.948;11.092;2023-01-30T03:34:53;8.23;;;6.43;;
20476;SDS011;10397;50.948;11.092;2023-01-30T03:37:24;8.40;;;6.53;;
20476;SDS011;10397;50.948;11.092;2023-01-30T03:39:55;9.03;;;7.00;;
20476;SDS011;10397;50.948;11.092;2023-01-30T03:42:26;9.77;;;6.23;;
20476;SDS011;10397;50.948;11.092;2023-01-30T03:44:57;8.43;;;6.87;;
20476;SDS011;10397;50.948;11.092;2023-01-30T03:47:28;10.53;;;6.83;;
20476;SDS011;10397;50.948;11.092;2023-01-30T03:49:59;7.70;;;6.23;;
20476;SDS011;10397;50.948;11.092;2023-01-30T03:52:33;9.13;;;6.43;;
20476;SDS011;10397;50.948;11.092;2023-01-30T03:55:01;8.33;;;6.50;;
20476;SDS011;10397;50.948;11.092;2023-01-30T03:57:32;11.53;;;8.27;;
20476;SDS011;10397;50.948;11.092;2023-01-30T04:00:03;10.43;;;7.47;;
20476;SDS011;10397;50.948;11.092;2023-01-30T04:02:33;10.53;;;7.77;;
20476;SDS011;10397;50.948;11.092;2023-01-30T04:05:04;8.50;;;6.57;;
20476;SDS011;10397;50.948;11.092;2023-01-30T04:07:35;10.70;;;8.03;;
20476;SDS011;10397;50.948;11.092;2023-01-30T04:10:06;8.63;;;7.13;;
20476;SDS011;10397;50.948;11.092;2023-01-30T04:12:36;8.63;;;6.60;;
20476;SDS011;10397;50.948;11.092;2023-01-30T04:15:08;10.00;;;7.43;;
20476;SDS011;10397;50.948;11.092;2023-01-30T04:17:38;10.53;;;7.17;;
20476;SDS011;10397;50.948;11.092;2023-01-30T04:20:09;8.13;;;6.60;;
20476;SDS011;10397;50.948;11.092;2023-01-30T04:22:39;8.53;;;5.97;;
20476;SDS011;10397;50.948;11.092;2023-01-30T04:25:10;7.30;;;6.33;;
20476;SDS011;10397;50.948;11.092;2023-01-30T04:27:41;7.93;;;5.70;;
20476;SDS011;10397;50.948;11.092;2023-01-30T04:30:11;8.97;;;6.57;;
20476;SDS011;10397;50.948;11.092;2023-01-30T04:32:42;7.73;;;6.73;;
20476;SDS011;10397;50.948;11.092;2023-01-30T04:35:13;8.67;;;6.30;;
20476;SDS011;10397;50.948;11.092;2023-01-30T04:37:44;8.70;;;5.97;;
20476;SDS011;10397;50.948;11.092;2023-01-30T04:40:15;7.57;;;6.10;;
20476;SDS011;10397;50.948;11.092;2023-01-30T04:42:46;7.80;;;5.17;;
20476;SDS011;10397;50.948;11.092;2023-01-30T04:45:17;7.30;;;5.87;;
20476;SDS011;10397;50.948;11.092;2023-01-30T04:47:48;6.73;;;6.00;;
20476;SDS011;10397;50.948;11.092;2023-01-30T04:50:19;7.17;;;5.57;;
20476;SDS011;10397;50.948;11.092;2023-01-30T04:52:50;7.03;;;6.10;;
20476;SDS011;10397;50.948;11.092;2023-01-30T04:55:21;7.73;;;5.10;;
20476;SDS011;10397;50.948;11.092;2023-01-30T04:57:52;7.33;;;5.50;;
20476;SDS011;10397;50.948;11.092;2023-01-30T05:00:23;7.30;;;5.50;;
20476;SDS011;10397;50.948;11.092;2023-01-30T05:02:54;7.23;;;4.63;;
20476;SDS011;10397;50.948;11.092;2023-01-30T05:05:25;6.60;;;4.33;;
20476;SDS011;10397;50.948;11.092;2023-01-30T05:07:55;8.13;;;4.80;;
20476;SDS011;10397;50.948;11.092;2023-01-30T05:10:26;4.87;;;3.97;;
20476;SDS011;10397;50.948;11.092;2023-01-30T05:13:00;6.40;;;3.53;;
20476;SDS011;10397;50.948;11.092;2023-01-30T05:15:30;5.97;;;4.33;;
20476;SDS011;10397;50.948;11.092;2023-01-30T05:18:01;4.77;;;3.80;;
20476;SDS011;10397;50.948;11.092;2023-01-30T05:20:31;5.27;;;3.90;;
20476;SDS011;10397;50.948;11.092;2023-01-30T05:23:02;5.77;;;4.33;;
20476;SDS011;10397;50.948;11.092;2023-01-30T05:25:33;5.17;;;3.30;;
20476;SDS011;10397;50.948;11.092;2023-01-30T05:28:04;6.27;;;4.90;;
20476;SDS011;10397;50.948;11.092;2023-01-30T05:30:36;5.53;;;4.10;;
20476;SDS011;10397;50.948;11.092;2023-01-30T05:33:07;6.30;;;4.77;;
20476;SDS011;10397;50.948;11.092;2023-01-30T05:35:38;7.27;;;5.70;;
20476;SDS011;10397;50.948;11.092;2023-01-30T05:38:09;6.80;;;4.90;;
20476;SDS011;10397;50.948;11.092;2023-01-30T05:40:40;5.87;;;4.00;;
20476;SDS011;10397;50.948;11.092;2023-01-30T05:43:11;6.17;;;4.53;;
20476;SDS011;10397;50.948;11.092;2023-01-30T05:45:42;6.87;;;4.93;;
20476;SDS011;10397;50.948;11.092;2023-01-30T05:48:13;6.00;;;5.07;;
20476;SDS011;10397;50.948;11.092;2023-01-30T05:50:45;7.50;;;4.80;;
20476;SDS011;10397;50.948;11.092;2023-01-30T05:53:16;5.20;;;4.43;;
20476;SDS011;10397;50.948;11.092;2023-01-30T05:55:53;5.47;;;4.13;;
20476;SDS011;10397;50.948;11.092;2023-01-30T05:58:17;5.60;;;4.73;;
20476;SDS011;10397;50.948;11.092;2023-01-30T06:00:48;6.10;;;4.07;;
20476;SDS011;10397;50.948;11.092;2023-01-30T06:03:19;5.70;;;4.40;;
20476;SDS011;10397;50.948;11.092;2023-01-30T06:05:50;6.73;;;5.40;;
20476;SDS011;10397;50.948;11.092;2023-01-30T06:08:21;4.93;;;4.33;;
20476;SDS011;10397;50.948;11.092;2023-01-30T06:10:51;5.83;;;4.50;;
20476;SDS011;10397;50.948;11.092;2023-01-30T06:13:23;6.10;;;4.23;;
20476;SDS011;10397;50.948;11.092;2023-01-30T06:15:54;5.17;;;4.07;;
20476;SDS011;10397;50.948;11.092;2023-01-30T06:18:24;5.10;;;3.63;;
20476;SDS011;10397;50.948;11.092;2023-01-30T06:20:55;5.63;;;3.47;;
20476;SDS011;10397;50.948;11.092;2023-01-30T06:23:26;3.57;;;2.83;;
20476;SDS011;10397;50.948;11.092;2023-01-30T06:25:56;3.50;;;2.33;;
20476;SDS011;10397;50.948;11.092;2023-01-30T06:28:27;3.30;;;2.20;;
20476;SDS011;10397;50.948;11.092;2023-01-30T06:30:58;5.53;;;3.00;;
20476;SDS011;10397;50.948;11.092;2023-01-30T06:33:28;3.70;;;2.40;;
20476;SDS011;10397;50.948;11.092;2023-01-30T06:35:59;2.77;;;2.03;;
20476;SDS011;10397;50.948;11.092;2023-01-30T06:38:30;8.57;;;2.37;;
20476;SDS011;10397;50.948;11.092;2023-01-30T06:41:01;3.20;;;2.30;;
20476;SDS011;10397;50.948;11.092;2023-01-30T06:43:32;3.17;;;1.80;;
20476;SDS011;10397;50.948;11.092;2023-01-30T06:46:03;3.20;;;2.50;;
20476;SDS011;10397;50.948;11.092;2023-01-30T06:48:34;3.33;;;2.10;;
20476;SDS011;10397;50.948;11.092;2023-01-30T06:51:06;2.33;;;1.40;;
20476;SDS011;10397;50.948;11.092;2023-01-30T06:53:37;2.93;;;1.90;;
20476;SDS011;10397;50.948;11.092;2023-01-30T06:56:08;4.27;;;2.80;;
20476;SDS011;10397;50.948;11.092;2023-01-30T06:58:39;6.40;;;2.47;;
20476;SDS011;10397;50.948;11.092;2023-01-30T07:01:10;4.63;;;2.37;;
20476;SDS011;10397;50.948;11.092;2023-01-30T07:03:40;3.70;;;2.50;;
20476;SDS011;10397;50.948;11.092;2023-01-30T07:06:11;4.87;;;2.77;;
20476;SDS011;10397;50.948;11.092;2023-01-30T07:08:42;3.77;;;2.53;;
20476;SDS011;10397;50.948;11.092;2023-01-30T07:11:13;3.13;;;2.00;;
20476;SDS011;10397;50.948;11.092;2023-01-30T07:13:44;3.13;;;1.57;;
20476;SDS011;10397;50.948;11.092;2023-01-30T07:16:16;5.17;;;2.43;;
20476;SDS011;10397;50.948;11.092;2023-01-30T07:18:46;3.37;;;1.97;;
20476;SDS011;10397;50.948;11.092;2023-01-30T07:21:17;3.07;;;2.10;;
20476;SDS011;10397;50.948;11.092;2023-01-30T07:23:48;4.03;;;2.57;;
20476;SDS011;10397;50.948;11.092;2023-01-30T07:26:20;2.70;;;1.80;;
20476;SDS011;10397;50.948;11.092;2023-01-30T07:28:50;3.27;;;2.10;;
20476;SDS011;10397;50.948;11.092;2023-01-30T07:31:20;3.83;;;2.90;;
20476;SDS011;10397;50.948;11.092;2023-01-30T07:33:51;4.17;;;2.70;;
20476;SDS011;10397;50.948;11.092;2023-01-30T07:36:22;2.97;;;2.10;;
20476;SDS011;10397;50.948;11.092;2023-01-30T07:38:52;2.80;;;2.30;;
20476;SDS011;10397;50.948;11.092;2023-01-30T07:41:24;3.20;;;2.03;;
20476;SDS011;10397;50.948;11.092;2023-01-30T07:43:55;6.77;;;4.10;;
20476;SDS011;10397;50.948;11.092;2023-01-30T07:46:26;11.80;;;7.63;;
20476;SDS011;10397;50.948;11.092;2023-01-30T07:48:57;9.30;;;7.20;;
20476;SDS011;10397;50.948;11.092;2023-01-30T07:51:28;3.63;;;2.20;;
20476;SDS011;10397;50.948;11.092;2023-01-30T07:53:59;2.70;;;1.57;;
20476;SDS011;10397;50.948;11.092;2023-01-30T07:56:29;2.07;;;0.97;;
20476;SDS011;10397;50.948;11.092;2023-01-30T07:59:00;1.43;;;1.00;;
20476;SDS011;10397;50.948;11.092;2023-01-30T08:01:31;2.70;;;1.40;;
20476;SDS011;10397;50.948;11.092;2023-01-30T08:04:02;1.87;;;1.00;;
20476;SDS011;10397;50.948;11.092;2023-01-30T08:06:33;1.50;;;0.97;;
20476;SDS011;10397;50.948;11.092;2023-01-30T08:09:04;1.13;;;0.73;;
20476;SDS011;10397;50.948;11.092;2023-01-30T08:11:34;1.53;;;0.90;;
20476;SDS011;10397;50.948;11.092;2023-01-30T08:14:05;2.00;;;1.23;;
20476;SDS011;10397;50.948;11.092;2023-01-30T08:16:35;2.47;;;1.40;;
20476;SDS011;10397;50.948;11.092;2023-01-30T08:19:06;3.27;;;1.57;;
20476;SDS011;10397;50.948;11.092;2023-01-30T08:21:37;2.53;;;1.37;;
20476;SDS011;10397;50.948;11.092;2023-01-30T08:24:08;2.10;;;1.43;;
20476;SDS011;10397;50.948;11.092;2023-01-30T08:26:39;1.07;;;0.63;;
20476;SDS011;10397;50.948;11.092;2023-01-30T08:29:10;2.77;;;1.50;;
20476;SDS011;10397;50.948;11.092;2023-01-30T08:31:41;1.60;;;1.00;;
20476;SDS011;10397;50.948;11.092;2023-01-30T08:34:12;2.47;;;1.50;;
20476;SDS011;10397;50.948;11.092;2023-01-30T08:36:43;5.63;;;1.50;;
20476;SDS011;10397;50.948;11.092;2023-01-30T08:39:14;4.90;;;1.50;;
20476;SDS011;10397;50.948;11.092;2023-01-30T08:41:45;1.60;;;1.20;;
20476;SDS011;10397;50.948;11.092;2023-01-30T08:44:16;2.00;;;1.10;;
20476;SDS011;10397;50.948;11.092;2023-01-30T08:46:47;2.30;;;1.50;;
20476;SDS011;10397;50.948;11.092;2023-01-30T08:49:18;11.57;;;8.07;;
20476;SDS011;10397;50.948;11.092;2023-01-30T08:51:49;6.13;;;3.67;;
20476;SDS011;10397;50.948;11.092;2023-01-30T08:54:20;2.07;;;1.60;;
20476;SDS011;10397;50.948;11.092;2023-01-30T08:56:51;2.13;;;1.57;;
20476;SDS011;10397;50.948;11.092;2023-01-30T08:59:22;2.33;;;1.73;;
20476;SDS011;10397;50.948;11.092;2023-01-30T09:01:53;3.37;;;2.23;;
20476;SDS011;10397;50.948;11.092;2023-01-30T09:04:24;2.43;;;1.30;;
20476;SDS011;10397;50.948;11.092;2023-01-30T09:06:55;2.43;;;1.80;;
20476;SDS011;10397;50.948;11.092;2023-01-30T09:09:27;2.77;;;1.80;;
20476;SDS011;10397;50.948;11.092;2023-01-30T09:11:56;3.20;;;1.73;;
20476;SDS011;10397;50.948;11.092;2023-01-30T09:14:27;2.80;;;1.40;;
20476;SDS011;10397;50.948;11.092;2023-01-30T09:16:58;2.70;;;1.77;;
20476;SDS011;10397;50.948;11.092;2023-01-30T09:19:29;2.37;;;1.60;;
20476;SDS011;10397;50.948;11.092;2023-01-30T09:22:00;2.87;;;1.87;;
20476;SDS011;10397;50.948;11.092;2023-01-30T09:24:31;2.10;;;1.20;;
20476;SDS011;10397;50.948;11.092;2023-01-30T09:27:02;2.57;;;1.50;;
20476;SDS011;10397;50.948;11.092;2023-01-30T09:29:33;13.53;;;1.90;;
20476;SDS011;10397;50.948;11.092;2023-01-30T09:32:03;3.47;;;2.40;;
20476;SDS011;10397;50.948;11.092;2023-01-30T09:34:34;3.03;;;2.17;;
20476;SDS011;10397;50.948;11.092;2023-01-30T09:37:06;3.60;;;2.03;;
20476;SDS011;10397;50.948;11.092;2023-01-30T09:39:36;3.53;;;1.13;;
20476;SDS011;10397;50.948;11.092;2023-01-30T09:42:12;2.37;;;1.63;;
20476;SDS011;10397;50.948;11.092;2023-01-30T09:44:54;2.23;;;1.53;;
20476;SDS011;10397;50.948;11.092;2023-01-30T09:47:29;2.87;;;1.87;;
20476;SDS011;10397;50.948;11.092;2023-01-30T09:52:51;2.73;;;1.60;;
20476;SDS011;10397;50.948;11.092;2023-01-30T09:55:25;2.97;;;1.87;;
20476;SDS011;10397;50.948;11.092;2023-01-30T09:57:55;2.30;;;1.57;;
20476;SDS011;10397;50.948;11.092;2023-01-30T10:00:35;2.30;;;1.73;;
20476;SDS011;10397;50.948;11.092;2023-01-30T10:03:07;2.63;;;1.93;;
20476;SDS011;10397;50.948;11.092;2023-01-30T10:08:34;2.87;;;1.83;;
20476;SDS011;10397;50.948;11.092;2023-01-30T10:11:23;3.03;;;2.17;;
20476;SDS011;10397;50.948;11.092;2023-01-30T10:14:07;2.70;;;1.70;;
20476;SDS011;10397;50.948;11.092;2023-01-30T10:22:16;2.87;;;2.03;;
20476;SDS011;10397;50.948;11.092;2023-01-30T10:28:22;4.27;;;1.70;;
20476;SDS011;10397;50.948;11.092;2023-01-30T10:30:53;4.67;;;1.73;;
20476;SDS011;10397;50.948;11.092;2023-01-30T10:33:24;2.27;;;1.57;;
20476;SDS011;10397;50.948;11.092;2023-01-30T10:35:59;2.53;;;1.70;;
20476;SDS011;10397;50.948;11.092;2023-01-30T10:38:28;2.27;;;1.77;;
20476;SDS011;10397;50.948;11.092;2023-01-30T10:41:16;1.97;;;1.33;;
20476;SDS011;10397;50.948;11.092;2023-01-30T10:51:45;2.70;;;1.80;;
20476;SDS011;10397;50.948;11.092;2023-01-30T10:54:27;2.07;;;1.33;;
20476;SDS011;10397;50.948;11.092;2023-01-30T10:59:57;4.27;;;3.33;;
20476;SDS011;10397;50.948;11.092;2023-01-30T11:05:17;3.80;;;3.10;;
20476;SDS011;10397;50.948;11.092;2023-01-30T11:07:45;3.60;;;1.70;;
20476;SDS011;10397;50.948;11.092;2023-01-30T11:10:18;3.03;;;2.23;;
20476;SDS011;10397;50.948;11.092;2023-01-30T11:12:47;2.00;;;1.47;;
20476;SDS011;10397;50.948;11.092;2023-01-30T11:15:17;2.70;;;1.87;;
20476;SDS011;10397;50.948;11.092;2023-01-30T11:17:48;5.30;;;2.30;;
20476;SDS011;10397;50.948;11.092;2023-01-30T11:20:19;3.10;;;1.63;;
20476;SDS011;10397;50.948;11.092;2023-01-30T11:22:50;2.07;;;1.60;;
20476;SDS011;10397;50.948;11.092;2023-01-30T11:25:22;2.20;;;1.73;;
20476;SDS011;10397;50.948;11.092;2023-01-30T11:27:51;3.47;;;2.40;;
20476;SDS011;10397;50.948;11.092;2023-01-30T11:30:26;2.87;;;1.67;;
20476;SDS011;10397;50.948;11.092;2023-01-30T11:33:03;2.43;;;1.60;;
20476;SDS011;10397;50.948;11.092;2023-01-30T11:35:25;2.17;;;1.60;;
20476;SDS011;10397;50.948;11.092;2023-01-30T11:38:09;2.73;;;1.10;;
20476;SDS011;10397;50.948;11.092;2023-01-30T11:40:26;1.90;;;1.10;;
20476;SDS011;10397;50.948;11.092;2023-01-30T11:43:07;2.30;;;1.27;;
20476;SDS011;10397;50.948;11.092;2023-01-30T11:45:36;2.53;;;1.47;;
20476;SDS011;10397;50.948;11.092;2023-01-30T11:48:10;3.60;;;0.97;;
20476;SDS011;10397;50.948;11.092;2023-01-30T11:50:41;2.70;;;1.30;;
20476;SDS011;10397;50.948;11.092;2023-01-30T11:56:21;1.27;;;0.97;;
20476;SDS011;10397;50.948;11.092;2023-01-30T12:02:00;1.87;;;0.70;;
20476;SDS011;10397;50.948;11.092;2023-01-30T12:04:33;1.43;;;0.60;;
20476;SDS011;10397;50.948;11.092;2023-01-30T12:07:05;1.77;;;0.87;;
20476;SDS011;10397;50.948;11.092;2023-01-30T12:09:35;3.00;;;0.60;;
20476;SDS011;10397;50.948;11.092;2023-01-30T12:12:49;1.43;;;0.60;;
20476;SDS011;10397;50.948;11.092;2023-01-30T12:15:02;1.87;;;0.60;;
20476;SDS011;10397;50.948;11.092;2023-01-30T12:17:34;3.40;;;1.30;;
20476;SDS011;10397;50.948;11.092;2023-01-30T12:20:18;3.17;;;1.00;;
20476;SDS011;10397;50.948;11.092;2023-01-30T12:25:57;4.63;;;0.90;;
20476;SDS011;10397;50.948;11.092;2023-01-30T12:28:34;3.40;;;1.30;;
20476;SDS011;10397;50.948;11.092;2023-01-30T12:31:11;2.27;;;1.00;;
20476;SDS011;10397;50.948;11.092;2023-01-30T12:33:41;3.67;;;0.90;;
20476;SDS011;10397;50.948;11.092;2023-01-30T12:36:21;2.77;;;0.83;;
20476;SDS011;10397;50.948;11.092;2023-01-30T12:39:12;1.97;;;0.73;;
20476;SDS011;10397;50.948;11.092;2023-01-30T12:41:49;4.03;;;1.20;;
20476;SDS011;10397;50.948;11.092;2023-01-30T12:44:19;1.27;;;0.77;;
20476;SDS011;10397;50.948;11.092;2023-01-30T12:49:57;2.73;;;0.90;;
20476;SDS011;10397;50.948;11.092;2023-01-30T12:52:46;1.10;;;0.60;;
20476;SDS011;10397;50.948;11.092;2023-01-30T12:55:28;2.97;;;1.37;;
20476;SDS011;10397;50.948;11.092;2023-01-30T12:57:59;2.97;;;1.00;;
20476;SDS011;10397;50.948;11.092;2023-01-30T13:00:35;2.77;;;1.00;;
20476;SDS011;10397;50.948;11.092;2023-01-30T13:03:06;2.63;;;1.30;;
20476;SDS011;10397;50.948;11.092;2023-01-30T13:05:51;3.63;;;1.30;;
20476;SDS011;10397;50.948;11.092;2023-01-30T13:08:25;4.70;;;1.53;;
20476;SDS011;10397;50.948;11.092;2023-01-30T13:10:57;3.27;;;1.40;;
20476;SDS011;10397;50.948;11.092;2023-01-30T13:13:33;7.07;;;1.67;;
20476;SDS011;10397;50.948;11.092;2023-01-30T13:16:26;3.23;;;1.23;;
20476;SDS011;10397;50.948;11.092;2023-01-30T13:19:08;5.10;;;1.10;;
20476;SDS011;10397;50.948;11.092;2023-01-30T13:21:47;2.23;;;1.20;;
20476;SDS011;10397;50.948;11.092;2023-01-30T13:24:15;11.87;;;1.40;;
20476;SDS011;10397;50.948;11.092;2023-01-30T13:27:01;3.00;;;1.37;;
20476;SDS011;10397;50.948;11.092;2023-01-30T13:29:32;6.93;;;1.87;;
20476;SDS011;10397;50.948;11.092;2023-01-30T13:32:03;5.87;;;2.00;;
20476;SDS011;10397;50.948;11.092;2023-01-30T13:34:33;4.23;;;1.60;;
20476;SDS011;10397;50.948;11.092;2023-01-30T13:37:05;8.47;;;2.43;;
20476;SDS011;10397;50.948;11.092;2023-01-30T13:44:59;7.40;;;2.27;;
20476;SDS011;10397;50.948;11.092;2023-01-30T13:50:26;6.30;;;2.33;;
20476;SDS011;10397;50.948;11.092;2023-01-30T13:53:18;7.30;;;1.53;;
20476;SDS011;10397;50.948;11.092;2023-01-30T13:55:56;6.20;;;1.67;;
20476;SDS011;10397;50.948;11.092;2023-01-30T13:58:37;3.60;;;1.40;;
20476;SDS011;10397;50.948;11.092;2023-01-30T14:01:16;6.07;;;1.53;;
20476;SDS011;10397;50.948;11.092;2023-01-30T14:03:47;3.70;;;1.87;;
20476;SDS011;10397;50.948;11.092;2023-01-30T14:06:36;5.80;;;1.40;;
20476;SDS011;10397;50.948;11.092;2023-01-30T14:09:17;3.90;;;0.80;;
20476;SDS011;10397;50.948;11.092;2023-01-30T14:11:55;2.80;;;0.97;;
20476;SDS011;10397;50.948;11.092;2023-01-30T14:16:54;5.40;;;1.40;;
20476;SDS011;10397;50.948;11.092;2023-01-30T14:19:28;2.57;;;0.60;;
20476;SDS011;10397;50.948;11.092;2023-01-30T14:27:49;4.03;;;0.70;;
20476;SDS011;10397;50.948;11.092;2023-01-30T14:33:30;3.70;;;0.70;;
20476;SDS011;10397;50.948;11.092;2023-01-30T14:38:33;3.17;;;0.93;;
20476;SDS011;10397;50.948;11.092;2023-01-30T14:43:33;4.80;;;0.77;;
20476;SDS011;10397;50.948;11.092;2023-01-30T14:46:52;5.00;;;1.10;;
20476;SDS011;10397;50.948;11.092;2023-01-30T14:48:55;6.17;;;1.10;;
20476;SDS011;10397;50.948;11.092;2023-01-30T14:54:19;6.43;;;1.67;;
20476;SDS011;10397;50.948;11.092;2023-01-30T15:04:52;8.60;;;1.57;;
20476;SDS011;10397;50.948;11.092;2023-01-30T15:07:26;8.97;;;1.50;;
20476;SDS011;10397;50.948;11.092;2023-01-30T15:10:17;6.03;;;0.77;;
20476;SDS011;10397;50.948;11.092;2023-01-30T15:13:05;5.53;;;0.90;;
20476;SDS011;10397;50.948;11.092;2023-01-30T15:15:53;5.87;;;0.90;;
20476;SDS011;10397;50.948;11.092;2023-01-30T15:18:32;8.63;;;1.17;;
20476;SDS011;10397;50.948;11.092;2023-01-30T15:23:51;11.27;;;1.53;;
20476;SDS011;10397;50.948;11.092;2023-01-30T15:26:29;10.03;;;0.87;;
20476;SDS011;10397;50.948;11.092;2023-01-30T15:31:30;5.30;;;0.90;;
20476;SDS011;10397;50.948;11.092;2023-01-30T15:34:01;8.50;;;1.40;;
20476;SDS011;10397;50.948;11.092;2023-01-30T15:36:33;15.53;;;1.10;;
20476;SDS011;10397;50.948;11.092;2023-01-30T15:39:03;6.60;;;1.30;;
20476;SDS011;10397;50.948;11.092;2023-01-30T15:41:36;3.93;;;0.87;;
20476;SDS011;10397;50.948;11.092;2023-01-30T15:44:16;7.60;;;1.20;;
20476;SDS011;10397;50.948;11.092;2023-01-30T15:49:53;6.23;;;1.30;;
20476;SDS011;10397;50.948;11.092;2023-01-30T15:52:34;11.90;;;0.93;;
20476;SDS011;10397;50.948;11.092;2023-01-30T15:55:05;8.40;;;1.07;;
20476;SDS011;10397;50.948;11.092;2023-01-30T15:57:36;6.03;;;1.07;;
20476;SDS011;10397;50.948;11.092;2023-01-30T16:00:06;9.67;;;1.30;;
20476;SDS011;10397;50.948;11.092;2023-01-30T16:02:36;9.60;;;1.47;;
20476;SDS011;10397;50.948;11.092;2023-01-30T16:05:14;7.90;;;1.27;;
20476;SDS011;10397;50.948;11.092;2023-01-30T16:07:44;8.57;;;1.27;;
20476;SDS011;10397;50.948;11.092;2023-01-30T16:10:18;7.57;;;0.97;;
20476;SDS011;10397;50.948;11.092;2023-01-30T16:12:47;12.73;;;1.57;;
20476;SDS011;10397;50.948;11.092;2023-01-30T16:15:30;7.63;;;1.23;;
20476;SDS011;10397;50.948;11.092;2023-01-30T16:18:01;13.00;;;1.67;;
20476;SDS011;10397;50.948;11.092;2023-01-30T16:20:39;6.60;;;1.47;;
20476;SDS011;10397;50.948;11.092;2023-01-30T16:23:04;7.97;;;1.47;;
20476;SDS011;10397;50.948;11.092;2023-01-30T16:25:35;7.50;;;1.37;;
20476;SDS011;10397;50.948;11.092;2023-01-30T16:28:06;11.67;;;1.53;;
20476;SDS011;10397;50.948;11.092;2023-01-30T16:30:37;8.73;;;1.27;;
20476;SDS011;10397;50.948;11.092;2023-01-30T16:33:08;5.37;;;0.90;;
20476;SDS011;10397;50.948;11.092;2023-01-30T16:35:45;13.53;;;1.43;;
20476;SDS011;10397;50.948;11.092;2023-01-30T16:41:04;9.00;;;1.30;;
20476;SDS011;10397;50.948;11.092;2023-01-30T16:43:35;7.97;;;1.13;;
20476;SDS011;10397;50.948;11.092;2023-01-30T16:46:32;6.23;;;1.50;;
20476;SDS011;10397;50.948;11.092;2023-01-30T16:49:00;8.57;;;1.43;;
20476;SDS011;10397;50.948;11.092;2023-01-30T16:51:28;5.90;;;0.90;;
20476;SDS011;10397;50.948;11.092;2023-01-30T16:54:00;6.43;;;1.33;;
20476;SDS011;10397;50.948;11.092;2023-01-30T16:56:30;6.70;;;1.33;;